Terminal Aerodrome Forecast
Issued by NWS Paducah, KY

Home | Current Version | Previous Version | Text Only | Print | Product List | Glossary On
Versions: 1 2 3 4 5 6 7 8 9 10 11 12 13 14 15
157
FTUS43 KPAH 211120
TAFEVV
TAF
KEVV 211120Z 2112/2212 01006KT P6SM -SHRA VCTS BKN070CB
      TEMPO 2113/2116 4SM TSRA BR BKN035CB
     FM211800 02007KT P6SM -SHRA BKN035
     FM220500 03008G18KT 5SM -SHRA BR SCT007 OVC015=

USA.gov is the U.S. government's official web portal to all federal, state and local government web resources and services.